createdAt,value
2022-11-28T00:00:39.822Z,18.77
2022-11-28T00:04:56.150Z,19.40
2022-11-28T00:09:14.201Z,20.08
2022-11-28T00:13:30.697Z,18.52
2022-11-28T00:17:46.953Z,17.87
2022-11-28T00:22:03.408Z,18.98
2022-11-28T00:26:25.820Z,19.65
2022-11-28T00:30:42.070Z,19.33
2022-11-28T00:34:58.218Z,20.20
2022-11-28T00:39:15.844Z,18.67
2022-11-28T00:43:32.189Z,20.60
2022-11-28T00:47:49.505Z,18.98
2022-11-28T00:52:05.770Z,19.50
2022-11-28T00:56:28.200Z,19.77
2022-11-28T01:00:44.512Z,19.92
2022-11-28T01:05:01.251Z,18.08
2022-11-28T01:09:22.492Z,19.23
2022-11-28T01:13:38.898Z,18.50
2022-11-28T01:17:55.131Z,19.50
2022-11-28T01:22:11.383Z,19.58
2022-11-28T01:26:29.188Z,18.35
2022-11-28T01:30:45.379Z,18.37
2022-11-28T01:35:01.680Z,17.52
2022-11-28T01:39:17.893Z,17.45
2022-11-28T01:43:34.400Z,18.73
2022-11-28T01:47:52.254Z,19.30
2022-11-28T01:52:15.575Z,18.75
2022-11-28T01:56:38.677Z,17.48
2022-11-28T02:00:55.443Z,18.33
2022-11-28T02:05:11.881Z,17.92
2022-11-28T02:09:28.091Z,17.35
2022-11-28T02:14:06.008Z,16.73
2022-11-28T02:18:41.638Z,17.75
2022-11-28T02:23:21.638Z,17.00
2022-11-28T02:28:03.970Z,18.00
2022-11-28T02:32:51.172Z,18.40
2022-11-28T02:37:17.883Z,19.20
2022-11-28T02:42:03.501Z,17.80
2022-11-28T02:46:31.664Z,19.75
2022-11-28T02:51:06.188Z,16.80
2022-11-28T02:55:23.238Z,18.83
2022-11-28T02:59:39.462Z,17.55
2022-11-28T03:04:07.511Z,17.15
2022-11-28T03:08:40.263Z,17.05
2022-11-28T03:12:59.613Z,17.43
2022-11-28T03:17:18.553Z,18.67
2022-11-28T03:22:03.703Z,16.58
2022-11-28T03:26:44.841Z,16.83
2022-11-28T03:31:22.922Z,16.90
2022-11-28T03:35:42.938Z,16.12
2022-11-28T03:40:03.291Z,15.98
2022-11-28T03:44:32.176Z,14.63
2022-11-28T03:48:52.591Z,16.52
2022-11-28T03:53:13.931Z,16.98
2022-11-28T03:57:40.315Z,18.75
2022-11-28T04:02:29.448Z,18.20
2022-11-28T04:06:56.957Z,17.87
2022-11-28T04:11:15.245Z,18.62
2022-11-28T04:15:35.606Z,18.60
2022-11-28T04:19:55.323Z,18.70
2022-11-28T04:24:21.228Z,18.25
2022-11-28T04:28:38.392Z,18.67
2022-11-28T04:32:59.789Z,17.25
2022-11-28T04:37:17.035Z,17.08
2022-11-28T04:41:53.180Z,16.92
2022-11-28T04:46:16.244Z,17.12
2022-11-28T04:50:56.572Z,17.42
2022-11-28T04:55:20.788Z,15.73
2022-11-28T04:59:37.740Z,14.85
2022-11-28T05:03:54.478Z,15.55
2022-11-28T05:08:11.073Z,14.98
2022-11-28T05:12:27.251Z,16.08
2022-11-28T05:16:43.467Z,15.52
2022-11-28T05:21:00.263Z,16.58
2022-11-28T05:25:16.599Z,17.02
2022-11-28T05:29:32.853Z,16.33
2022-11-28T05:33:49.118Z,15.48
2022-11-28T05:38:09.332Z,15.13
2022-11-28T05:42:30.516Z,16.48
2022-11-28T05:46:46.739Z,16.58
2022-11-28T05:51:05.384Z,16.00
2022-11-28T05:55:21.587Z,16.35
2022-11-28T05:59:38.029Z,17.48
2022-11-28T06:04:00.113Z,15.75
2022-11-28T06:08:16.900Z,16.70
2022-11-28T06:12:33.608Z,16.20
2022-11-28T06:16:50.015Z,17.50
2022-11-28T06:21:07.696Z,16.20
2022-11-28T06:25:23.851Z,15.55
2022-11-28T06:29:40.163Z,16.33
2022-11-28T06:33:57.240Z,17.15
2022-11-28T06:38:14.487Z,18.05
2022-11-28T06:42:30.909Z,19.02
2022-11-28T06:46:47.149Z,18.02
2022-11-28T06:51:05.497Z,19.58
2022-11-28T06:55:21.740Z,19.80
2022-11-28T06:59:37.961Z,18.95
2022-11-28T07:03:57.302Z,18.85
2022-11-28T07:08:13.617Z,19.02
2022-11-28T07:12:29.821Z,19.80
2022-11-28T07:16:46.195Z,18.42
2022-11-28T07:21:02.548Z,18.12
2022-11-28T07:25:18.829Z,18.65
2022-11-28T07:29:37.979Z,19.42
2022-11-28T07:33:54.212Z,17.42
2022-11-28T07:38:10.303Z,18.35
2022-11-28T07:42:26.481Z,17.30
2022-11-28T07:46:42.777Z,16.73
2022-11-28T07:50:59.139Z,16.95
2022-11-28T07:55:15.389Z,16.65
2022-11-28T07:59:31.548Z,15.40
2022-11-28T08:03:48.573Z,16.83
2022-11-28T08:08:04.920Z,16.40
2022-11-28T08:12:21.121Z,16.35
2022-11-28T08:16:37.365Z,17.00
2022-11-28T08:20:53.734Z,15.50
2022-11-28T08:25:10.234Z,15.90
2022-11-28T08:29:26.489Z,16.85
2022-11-28T08:33:43.632Z,16.73
2022-11-28T08:38:01.998Z,15.00
2022-11-28T08:42:18.491Z,15.98
2022-11-28T08:46:34.992Z,14.38
2022-11-28T08:50:52.926Z,15.73
2022-11-28T08:55:09.596Z,14.35
2022-11-28T08:59:26.141Z,14.23
2022-11-28T09:03:42.307Z,15.52
2022-11-28T09:07:58.596Z,14.98
2022-11-28T09:12:14.832Z,14.70
2022-11-28T09:16:31.129Z,14.50
2022-11-28T09:20:47.701Z,13.70
2022-11-28T09:25:04.238Z,14.40
2022-11-28T09:29:20.383Z,12.90
2022-11-28T09:33:36.891Z,14.05
2022-11-28T09:37:53.194Z,15.27
2022-11-28T09:42:31.030Z,13.15
2022-11-28T09:46:49.420Z,11.95
2022-11-28T09:51:42.877Z,10.38
2022-11-28T09:56:15.953Z,9.85
2022-11-28T10:00:38.978Z,8.80
2022-11-28T10:05:24.516Z,9.00
2022-11-28T10:10:13.269Z,8.73
2022-11-28T10:15:20.288Z,9.95
2022-11-28T10:19:55.147Z,8.95
2022-11-28T10:24:39.793Z,9.20
2022-11-28T10:28:58.021Z,8.68
2022-11-28T10:33:23.137Z,9.32
2022-11-28T10:37:39.960Z,10.30
2022-11-28T10:42:14.049Z,10.40
2022-11-28T10:46:37.305Z,10.15
2022-11-28T10:51:11.810Z,10.63
2022-11-28T10:55:41.019Z,10.23
2022-11-28T11:00:07.617Z,10.45
2022-11-28T11:04:27.097Z,11.57
2022-11-28T11:08:45.746Z,11.68
2022-11-28T11:13:11.368Z,10.95
2022-11-28T11:17:36.453Z,11.40
2022-11-28T11:22:21.064Z,11.88
2022-11-28T11:26:49.866Z,12.73
2022-11-28T11:31:15.007Z,12.52
2022-11-28T11:35:37.199Z,12.55
2022-11-28T11:39:54.245Z,12.43
2022-11-28T11:44:19.531Z,12.45
2022-11-28T11:48:38.202Z,11.80
2022-11-28T11:53:04.902Z,12.05
2022-11-28T11:57:32.975Z,11.77
2022-11-28T12:01:54.573Z,10.85
2022-11-28T12:06:32.955Z,12.75
2022-11-28T12:11:08.047Z,12.73
2022-11-28T12:15:35.271Z,12.48
2022-11-28T12:20:21.650Z,12.75
2022-11-28T12:24:54.752Z,13.23
2022-11-28T12:29:32.041Z,13.02
2022-11-28T12:34:03.703Z,13.90
2022-11-28T12:38:32.226Z,14.93
2022-11-28T12:42:57.427Z,14.02
2022-11-28T12:47:28.022Z,12.68
2022-11-28T12:52:01.210Z,11.70
2022-11-28T12:56:44.004Z,12.48
2022-11-28T13:01:34.387Z,12.10
2022-11-28T13:06:16.754Z,13.25
2022-11-28T13:10:42.054Z,13.77
2022-11-28T13:15:08.829Z,13.95
2022-11-28T13:19:57.445Z,14.98
2022-11-28T13:24:40.345Z,14.70
2022-11-28T13:29:27.401Z,15.43
2022-11-28T13:33:57.068Z,15.02
2022-11-28T13:38:58.743Z,14.77
2022-11-28T13:43:39.667Z,13.30
2022-11-28T13:47:55.903Z,12.90
2022-11-28T13:52:21.964Z,14.20
2022-11-28T13:56:38.066Z,13.95
2022-11-28T14:01:07.980Z,14.60
2022-11-28T14:05:37.805Z,14.73
2022-11-28T14:10:02.867Z,14.20
2022-11-28T14:14:34.202Z,13.45
2022-11-28T14:18:57.498Z,13.88
2022-11-28T14:23:25.477Z,13.15
2022-11-28T14:27:48.904Z,12.43
2022-11-28T14:32:28.907Z,12.52
2022-11-28T14:36:44.019Z,13.13
2022-11-28T14:41:11.997Z,13.10
2022-11-28T14:45:41.075Z,12.05
2022-11-28T14:50:17.827Z,12.37
2022-11-28T14:54:43.326Z,12.90
2022-11-28T14:59:03.630Z,12.90
2022-11-28T15:03:40.890Z,13.02
2022-11-28T15:08:18.726Z,14.18
2022-11-28T15:12:44.401Z,14.52
2022-11-28T15:17:06.444Z,12.82
2022-11-28T15:21:23.335Z,13.57
2022-11-28T15:25:40.150Z,14.05
2022-11-28T15:30:01.131Z,14.13
2022-11-28T15:34:28.343Z,14.23
2022-11-28T15:38:46.539Z,14.77
2022-11-28T15:43:08.096Z,16.87
2022-11-28T15:47:29.096Z,14.52
2022-11-28T15:51:51.715Z,14.25
2022-11-28T15:56:13.898Z,15.30
2022-11-28T16:00:30.240Z,15.45
2022-11-28T16:04:46.872Z,15.38
2022-11-28T16:09:19.363Z,15.68
2022-11-28T16:13:37.502Z,16.12
2022-11-28T16:17:55.797Z,17.42
2022-11-28T16:22:17.910Z,16.98
2022-11-28T16:26:42.683Z,17.23
2022-11-28T16:30:59.307Z,17.58
2022-11-28T16:35:40.633Z,17.95
2022-11-28T16:40:19.670Z,17.40
2022-11-28T16:44:37.108Z,16.40
2022-11-28T16:49:00.935Z,18.00
2022-11-28T16:58:07.561Z,16.62
2022-11-28T17:02:25.623Z,15.95
2022-11-28T17:06:42.880Z,15.32
2022-11-28T17:10:59.434Z,17.25
2022-11-28T17:15:19.050Z,16.17
2022-11-28T17:19:35.957Z,17.83
2022-11-28T17:23:53.050Z,17.00
2022-11-28T17:28:14.832Z,17.42
2022-11-28T17:32:35.341Z,16.05
2022-11-28T17:36:51.992Z,18.52
2022-11-28T17:41:13.714Z,19.17
2022-11-28T17:45:31.976Z,16.90
2022-11-28T17:49:48.708Z,17.95
2022-11-28T17:54:05.417Z,19.35
2022-11-28T17:58:24.032Z,19.33
2022-11-28T18:02:40.214Z,20.42
2022-11-28T18:06:56.579Z,21.10
2022-11-28T18:11:13.792Z,23.27
2022-11-28T18:15:30.531Z,20.73
2022-11-28T18:19:50.217Z,20.35
2022-11-28T18:24:08.988Z,19.15
2022-11-28T18:28:25.449Z,20.65
2022-11-28T18:32:41.890Z,20.30
2022-11-28T18:37:00.964Z,20.67
2022-11-28T18:41:18.433Z,19.27
2022-11-28T18:45:35.385Z,20.98
2022-11-28T18:49:51.749Z,21.85
2022-11-28T18:54:07.977Z,19.10
2022-11-28T18:58:24.191Z,20.35
2022-11-28T19:02:40.991Z,20.60
2022-11-28T19:06:57.272Z,20.10
2022-11-28T19:11:15.710Z,18.52
2022-11-28T19:15:32.122Z,19.20
2022-11-28T19:19:48.573Z,20.80
2022-11-28T19:24:05.698Z,19.15
2022-11-28T19:28:21.885Z,19.33
2022-11-28T19:32:38.148Z,21.48
2022-11-28T19:36:54.483Z,19.10
2022-11-28T19:41:15.512Z,19.65
2022-11-28T19:45:31.704Z,18.65
2022-11-28T19:49:48.006Z,18.08
2022-11-28T19:54:04.385Z,19.23
2022-11-28T19:58:20.688Z,18.42
2022-11-28T20:02:36.861Z,20.70
2022-11-28T20:06:53.708Z,20.37
2022-11-28T20:11:18.146Z,20.85
2022-11-28T20:15:37.760Z,22.30
2022-11-28T20:19:54.005Z,21.95
2022-11-28T20:24:10.612Z,21.05
2022-11-28T20:28:26.775Z,21.70
2022-11-28T20:32:42.951Z,20.73
2022-11-28T20:36:59.668Z,22.42
2022-11-28T20:41:17.781Z,20.75
2022-11-28T20:45:33.954Z,20.62
2022-11-28T20:49:50.170Z,19.70
2022-11-28T20:54:06.872Z,20.55
2022-11-28T20:58:22.987Z,19.95
2022-11-28T21:02:39.178Z,20.92
2022-11-28T21:06:55.383Z,19.67
2022-11-28T21:11:36.635Z,19.75
2022-11-28T21:15:53.900Z,20.20
2022-11-28T21:20:10.550Z,18.87
2022-11-28T21:24:26.743Z,19.27
2022-11-28T21:28:44.616Z,20.50
2022-11-28T21:33:00.889Z,19.45
2022-11-28T21:37:17.031Z,21.48
2022-11-28T21:41:33.732Z,20.20
2022-11-28T21:45:50.568Z,19.37
2022-11-28T21:50:07.339Z,22.23
2022-11-28T21:54:23.567Z,18.90
2022-11-28T21:58:40.093Z,18.40
2022-11-28T22:03:02.728Z,19.48
2022-11-28T22:07:19.663Z,20.40
2022-11-28T22:11:35.987Z,19.25
2022-11-28T22:15:52.223Z,19.20
2022-11-28T22:20:09.436Z,20.98
2022-11-28T22:24:25.743Z,19.02
2022-11-28T22:28:41.974Z,20.98
2022-11-28T22:32:58.205Z,19.58
2022-11-28T22:37:14.368Z,19.33
2022-11-28T22:41:30.789Z,17.15
2022-11-28T22:45:55.019Z,18.52
2022-11-28T22:50:11.519Z,20.08
2022-11-28T22:54:27.755Z,19.75
2022-11-28T22:58:45.218Z,19.92
2022-11-28T23:03:01.556Z,20.45
2022-11-28T23:07:18.055Z,18.90
2022-11-28T23:11:35.898Z,18.77
2022-11-28T23:15:52.987Z,17.87
2022-11-28T23:20:09.934Z,17.42
2022-11-28T23:24:26.226Z,18.70
2022-11-28T23:28:42.735Z,17.90
2022-11-28T23:32:58.995Z,19.45
2022-11-28T23:37:15.144Z,20.45
2022-11-28T23:41:31.834Z,18.95
2022-11-28T23:45:48.094Z,19.10
2022-11-28T23:50:04.813Z,18.98
2022-11-28T23:54:21.011Z,18.80
2022-11-28T23:58:37.635Z,19.02
